Time;durP1;ratioP1;P1;durP2;ratioP2;P2;SDS_P1;SDS_P2;PMS_P1;PMS_P2;Temp;Humidity;BMP_temperature;BMP_pressure;BME280_temperature;BME280_humidity;BME280_pressure;Samples;Min_cycle;Max_cycle;Signal;HPM_P1;HPM_P2
2022/04/30 00:00:37;;;;;;;4.38;2.45;;;;;;;8.28;64.60;103107.88;4973203;28;121039;-35
2022/04/30 00:03:02;;;;;;;5.00;2.38;;;;;;;8.32;65.64;103111.44;4973338;28;99018;-35
2022/04/30 00:05:30;;;;;;;4.32;2.38;;;;;;;8.34;65.37;103106.88;4972917;28;127030;-35
2022/04/30 00:07:56;;;;;;;4.57;2.40;;;;;;;8.28;64.98;103104.28;4971990;28;96762;-35
2022/04/30 00:10:21;;;;;;;3.63;1.60;;;;;;;8.24;64.95;103094.44;4973839;28;96740;-35
2022/04/30 00:12:47;;;;;;;3.22;2.00;;;;;;;8.20;66.20;103096.31;4972325;28;122705;-35
2022/04/30 00:15:12;;;;;;;5.13;2.53;;;;;;;8.22;65.66;103105.28;4973678;28;107779;-35
2022/04/30 00:17:37;;;;;;;3.75;2.08;;;;;;;8.12;65.47;103105.44;4973671;28;101909;-35
2022/04/30 00:20:05;;;;;;;4.28;2.25;;;;;;;8.20;66.22;103106.19;4973396;28;114141;-35
2022/04/30 00:22:30;;;;;;;6.47;2.53;;;;;;;8.18;65.58;103099.94;4973583;28;98073;-35
2022/04/30 00:24:55;;;;;;;5.47;2.53;;;;;;;8.07;65.87;103087.50;4972588;28;124821;-35
2022/04/30 00:27:21;;;;;;;7.38;2.95;;;;;;;8.18;65.91;103094.56;4973389;28;96513;-35
2022/04/30 00:29:46;;;;;;;4.03;2.13;;;;;;;8.16;65.48;103096.38;4972250;28;97158;-35
2022/04/30 00:32:13;;;;;;;7.00;2.42;;;;;;;8.09;65.69;103091.06;4973671;28;97866;-35
2022/04/30 00:34:38;;;;;;;4.03;1.95;;;;;;;8.16;65.95;103094.56;4971810;28;100988;-35
2022/04/30 00:37:03;;;;;;;4.70;2.20;;;;;;;8.16;66.01;103094.56;4973392;28;96557;-35
2022/04/30 00:39:33;;;;;;;4.53;1.75;;;;;;;8.19;65.54;103099.03;4973063;28;110572;-35
2022/04/30 00:41:59;;;;;;;9.88;2.03;;;;;;;8.18;66.03;103099.94;4973425;28;97550;-35
2022/04/30 00:44:24;;;;;;;11.43;1.98;;;;;;;8.15;65.26;103092.78;4973627;28;99310;-35
2022/04/30 00:46:50;;;;;;;8.15;1.98;;;;;;;8.20;65.45;103095.38;4973410;28;99939;-35
2022/04/30 00:49:15;;;;;;;4.40;2.42;;;;;;;8.18;65.65;103094.56;4972688;28;113404;-35
2022/04/30 00:51:43;;;;;;;4.00;2.22;;;;;;;8.12;66.33;103081.13;4972592;28;99201;-35
2022/04/30 00:54:10;;;;;;;5.80;2.65;;;;;;;8.09;66.64;103085.66;4973231;28;97910;-35
2022/04/30 00:56:51;;;;;;;4.88;2.35;;;;;;;8.12;66.42;103081.13;4972045;28;96564;-35
2022/04/30 00:59:18;;;;;;;6.18;1.73;;;;;;;8.13;65.65;103080.22;4971805;28;96675;-35
2022/04/30 01:01:45;;;;;;;4.78;2.13;;;;;;;8.20;65.82;103081.91;4971638;28;101228;-35
2022/04/30 01:04:12;;;;;;;4.88;2.60;;;;;;;8.13;65.70;103081.13;4971743;28;101441;-35
2022/04/30 01:06:51;;;;;;;7.10;1.92;;;;;;;8.18;66.61;103083.75;4971768;28;96578;-35
2022/04/30 01:09:28;;;;;;;7.65;2.78;;;;;;;8.13;65.73;103082.91;4972190;28;96750;-35
2022/04/30 01:12:11;;;;;;;7.43;2.60;;;;;;;8.13;66.15;103082.91;4972379;28;99648;-35
2022/04/30 01:14:39;;;;;;;5.43;2.53;;;;;;;8.10;65.31;103073.06;4971806;28;100857;-35
2022/04/30 01:17:06;;;;;;;3.45;2.08;;;;;;;8.08;66.22;103075.78;4971153;28;96828;-35
2022/04/30 01:19:37;;;;;;;4.00;2.05;;;;;;;8.02;66.56;103078.56;4955070;28;96859;-35
2022/04/30 01:22:09;;;;;;;3.72;1.83;;;;;;;7.94;65.89;103069.72;4972642;28;97980;-35
2022/04/30 01:24:38;;;;;;;4.97;1.95;;;;;;;7.94;66.81;103075.09;4972124;28;99174;-35
2022/04/30 01:27:07;;;;;;;8.95;2.85;;;;;;;7.88;66.86;103067.09;4971611;28;96825;-35
2022/04/30 01:29:36;;;;;;;5.22;2.08;;;;;;;7.91;66.40;103052.66;4972948;28;96751;-35
2022/04/30 01:37:36;;;;;;;2.85;1.27;;;;;;;7.95;66.31;103059.81;4973219;28;96537;-35
2022/04/30 01:40:04;;;;;;;3.53;1.77;;;;;;;7.94;66.42;103058.91;4971383;28;96648;-35
2022/04/30 01:42:35;;;;;;;7.65;2.08;;;;;;;7.94;66.45;103052.63;4971956;28;100130;-35
2022/04/30 01:45:04;;;;;;;2.40;1.52;;;;;;;7.85;66.31;103041.03;4955148;28;100907;-35
2022/04/30 01:47:30;;;;;;;2.28;1.70;;;;;;;7.91;66.21;103050.84;4972392;28;96788;-35
2022/04/30 01:49:56;;;;;;;5.18;2.22;;;;;;;7.83;67.11;103048.25;4971264;28;96873;-35
2022/04/30 01:52:21;;;;;;;3.88;1.92;;;;;;;7.79;66.82;103038.41;4972517;28;97949;-35
2022/04/30 01:54:46;;;;;;;4.93;2.25;;;;;;;7.86;66.51;103047.31;4972514;28;97785;-35
2022/04/30 01:57:12;;;;;;;3.28;1.60;;;;;;;7.84;66.06;103035.66;4971713;28;116545;-35
2022/04/30 01:59:38;;;;;;;4.43;2.30;;;;;;;7.81;65.93;103038.41;4972850;28;96735;-35
2022/04/30 02:02:05;;;;;;;3.47;1.98;;;;;;;7.79;66.16;103038.41;4972368;28;97933;-35
2022/04/30 02:04:32;;;;;;;3.25;1.63;;;;;;;7.78;66.55;103044.75;4970840;28;100493;-35
2022/04/30 02:06:59;;;;;;;2.55;1.35;;;;;;;7.82;66.11;103041.09;4971940;28;96721;-35
2022/04/30 02:09:28;;;;;;;2.50;1.65;;;;;;;7.85;66.61;103038.34;4970822;28;96819;-35
2022/04/30 02:11:57;;;;;;;3.30;1.70;;;;;;;7.85;66.84;103041.03;4971615;28;99227;-35
2022/04/30 02:14:24;;;;;;;4.05;2.05;;;;;;;7.75;66.59;103033.13;4972091;28;98096;-35
2022/04/30 02:16:49;;;;;;;3.30;1.73;;;;;;;7.82;66.58;103032.13;4970953;28;96693;-35
2022/04/30 02:19:16;;;;;;;2.45;1.77;;;;;;;7.79;66.93;103032.13;4970426;28;107839;-35
2022/04/30 02:21:42;;;;;;;5.53;2.22;;;;;;;7.78;66.49;103027.69;4970625;28;101024;-35
2022/04/30 02:24:08;;;;;;;4.63;2.28;;;;;;;7.78;67.57;103022.28;4971060;28;100874;-35
2022/04/30 02:26:33;;;;;;;3.40;2.00;;;;;;;7.76;66.21;103014.19;4972264;28;96592;-35
2022/04/30 02:28:59;;;;;;;2.90;1.67;;;;;;;7.80;67.33;103025.84;4972158;28;96770;-35
2022/04/30 02:31:26;;;;;;;2.50;1.52;;;;;;;7.84;66.70;103039.28;4971604;28;97382;-35
2022/04/30 02:33:56;;;;;;;3.28;1.67;;;;;;;7.80;66.66;103037.53;4970410;28;100816;-35
2022/04/30 02:36:25;;;;;;;3.20;1.95;;;;;;;7.73;66.79;103024.16;4974836;28;96601;-35
2022/04/30 02:38:55;;;;;;;2.95;1.63;;;;;;;7.72;67.47;103025.94;4973962;28;96747;-35
2022/04/30 02:41:21;;;;;;;2.22;1.58;;;;;;;7.65;66.96;103016.16;4975270;28;97982;-35
2022/04/30 02:43:51;;;;;;;6.18;1.88;;;;;;;7.66;66.37;103012.56;4973773;28;100906;-35
2022/04/30 02:46:18;;;;;;;4.22;2.20;;;;;;;7.70;66.65;103032.28;4973952;28;96544;-35
2022/04/30 02:48:44;;;;;;;3.50;2.15;;;;;;;7.59;66.99;103019.84;4974363;28;96769;-35
2022/04/30 02:51:10;;;;;;;2.42;1.70;;;;;;;7.49;66.90;103009.22;4975236;28;97982;-35
2022/04/30 02:53:37;;;;;;;2.85;1.80;;;;;;;7.52;67.86;103012.75;4973654;28;101048;-35
2022/04/30 02:56:04;;;;;;;3.00;1.75;;;;;;;7.55;66.95;103012.69;4957099;28;96620;-35
2022/04/30 03:01:13;;;;;;;3.45;1.77;;;;;;;7.58;67.77;103017.16;4975497;28;97035;-35
2022/04/30 03:03:38;;;;;;;2.35;1.65;;;;;;;7.48;67.08;103007.41;4974476;28;120985;-35
2022/04/30 03:06:03;;;;;;;8.32;2.38;;;;;;;7.54;67.93;103010.94;4975199;28;96805;-35
2022/04/30 03:08:29;;;;;;;1.83;1.15;;;;;;;7.54;66.96;102999.25;4974985;28;96773;-35
2022/04/30 03:10:58;;;;;;;4.68;1.80;;;;;;;7.59;67.23;103008.16;4974732;28;99140;-35
2022/04/30 03:13:25;;;;;;;2.60;1.70;;;;;;;7.48;67.71;102994.81;4974842;28;99186;-35
2022/04/30 03:15:52;;;;;;;2.45;1.55;;;;;;;7.53;67.25;103002.84;4973535;28;96635;-35
2022/04/30 03:23:47;;;;;;;2.63;1.35;;;;;;;7.51;67.59;102989.41;4972533;28;97739;-35
2022/04/30 03:26:13;;;;;;;2.15;1.42;;;;;;;7.58;66.86;102993.81;4974696;28;96596;-35
2022/04/30 03:28:41;;;;;;;12.25;2.17;;;;;;;7.60;67.05;102996.44;4973415;28;96853;-35
2022/04/30 03:31:10;;;;;;;2.60;1.52;;;;;;;7.59;66.95;102984.78;4973161;28;100845;-35
2022/04/30 03:33:35;;;;;;;3.50;2.33;;;;;;;7.56;66.72;102973.16;4972994;28;101207;-35
2022/04/30 03:36:02;;;;;;;4.47;2.25;;;;;;;7.63;66.83;102997.31;4974514;28;96568;-35
2022/04/30 03:38:27;;;;;;;2.58;1.67;;;;;;;7.59;67.22;102984.78;4973599;28;96788;-35
2022/04/30 03:40:53;;;;;;;2.88;1.63;;;;;;;7.61;67.42;102993.75;4972994;28;101004;-35
2022/04/30 03:43:18;;;;;;;1.98;1.08;;;;;;;7.54;67.20;102988.47;4973402;28;127069;-35
2022/04/30 03:45:44;;;;;;;2.85;1.35;;;;;;;7.53;66.43;102981.28;4973063;28;108867;-35
2022/04/30 03:48:10;;;;;;;3.65;1.48;;;;;;;7.57;66.67;102989.31;4972888;28;97627;-35
2022/04/30 03:50:35;;;;;;;2.03;1.35;;;;;;;7.52;66.60;102971.41;4974328;28;98041;-35
2022/04/30 03:53:01;;;;;;;5.40;1.52;;;;;;;7.55;65.88;102965.97;4972754;28;105407;-35
2022/04/30 03:55:27;;;;;;;3.05;1.50;;;;;;;7.58;66.31;102977.63;4974488;28;96455;-35
2022/04/30 03:57:53;;;;;;;2.97;1.75;;;;;;;7.63;66.11;102977.56;4972816;28;96845;-35
2022/04/30 04:00:19;;;;;;;2.33;1.35;;;;;;;7.57;66.06;102966.84;4974221;28;97931;-35
2022/04/30 04:02:45;;;;;;;2.00;1.33;;;;;;;7.67;65.91;102979.25;4972807;28;100649;-35
2022/04/30 04:05:12;;;;;;;2.08;1.30;;;;;;;7.67;66.69;102973.88;4973925;28;96614;-35
2022/04/30 04:07:39;;;;;;;2.10;1.35;;;;;;;7.73;65.88;102981.00;4972633;28;96764;-35
2022/04/30 04:10:05;;;;;;;2.83;1.30;;;;;;;7.75;65.79;102976.47;4972983;28;98956;-35
2022/04/30 04:12:30;;;;;;;3.38;1.58;;;;;;;7.78;65.98;102981.81;4973103;28;99543;-35
2022/04/30 04:17:40;;;;;;;2.67;1.63;;;;;;;7.78;65.75;102977.31;4974204;28;96601;-35
2022/04/30 04:20:07;;;;;;;2.60;1.73;;;;;;;7.79;65.52;102987.16;4973451;28;99403;-35
2022/04/30 04:22:33;;;;;;;1.85;1.27;;;;;;;7.78;65.93;102988.09;4972262;28;99866;-35
2022/04/30 04:27:42;;;;;;;2.30;1.33;;;;;;;7.76;66.16;102998.00;4974423;28;96631;-35
2022/04/30 04:30:08;;;;;;;5.63;1.73;;;;;;;7.74;66.28;102990.84;4972964;28;116806;-35
2022/04/30 04:32:33;;;;;;;1.65;1.15;;;;;;;7.79;66.04;102995.25;4973411;28;99455;-35
2022/04/30 04:34:58;;;;;;;1.95;0.98;;;;;;;7.84;65.95;102998.81;4972681;28;113197;-35
2022/04/30 04:37:23;;;;;;;3.53;1.92;;;;;;;7.87;65.86;102997.88;4973428;28;96822;-35
2022/04/30 04:39:49;;;;;;;4.63;1.60;;;;;;;7.91;65.50;103004.97;4973138;28;99316;-35
2022/04/30 04:42:14;;;;;;;7.07;1.83;;;;;;;7.90;66.63;102996.91;4973197;28;104488;-35
2022/04/30 04:44:40;;;;;;;2.53;1.50;;;;;;;7.93;66.71;102999.56;4973646;28;96619;-35
2022/04/30 04:47:05;;;;;;;1.70;1.20;;;;;;;7.96;65.85;102992.31;4972123;28;96846;-35
2022/04/30 04:49:32;;;;;;;3.13;1.60;;;;;;;7.96;65.99;102986.94;4971668;28;99346;-35
2022/04/30 04:51:57;;;;;;;2.10;1.38;;;;;;;7.96;66.22;102989.63;4972214;28;100953;-35
2022/04/30 04:54:22;;;;;;;2.63;1.58;;;;;;;8.01;66.27;102997.66;4972684;28;113981;-35
2022/04/30 04:56:48;;;;;;;2.58;1.40;;;;;;;8.00;66.00;102995.84;4973009;28;102889;-35
2022/04/30 04:59:13;;;;;;;3.58;1.73;;;;;;;7.99;66.57;102997.66;4971321;28;98827;-35
2022/04/30 05:01:40;;;;;;;4.22;1.58;;;;;;;8.11;66.68;103015.47;4973009;28;99123;-35
2022/04/30 05:04:06;;;;;;;1.95;1.38;;;;;;;8.07;65.60;103013.72;4971995;28;96578;-35
2022/04/30 05:06:31;;;;;;;3.50;1.85;;;;;;;8.05;66.48;103013.75;4973532;28;96816;-35
2022/04/30 05:08:56;;;;;;;1.80;1.23;;;;;;;8.10;65.86;103027.16;4972399;28;115712;-35
2022/04/30 05:11:22;;;;;;;2.00;1.35;;;;;;;8.13;66.32;103018.13;4971549;28;126515;-35
2022/04/30 05:13:47;;;;;;;7.45;1.67;;;;;;;8.12;66.17;103019.94;4971617;28;96928;-35
2022/04/30 05:16:12;;;;;;;4.30;1.45;;;;;;;8.13;66.12;103016.34;4972724;28;115130;-35
2022/04/30 05:18:38;;;;;;;3.28;1.77;;;;;;;8.12;65.51;103005.56;4971946;28;126612;-35
2022/04/30 05:21:03;;;;;;;4.65;2.10;;;;;;;8.16;65.59;103016.28;4971907;28;126975;-35
2022/04/30 05:23:28;;;;;;;2.50;1.58;;;;;;;8.23;65.69;103019.78;4971856;28;117881;-35
2022/04/30 05:25:54;;;;;;;2.92;1.92;;;;;;;8.24;65.86;103019.72;4972770;28;96870;-35
2022/04/30 05:28:20;;;;;;;3.22;2.00;;;;;;;8.26;65.43;103022.41;4972517;28;105832;-35
2022/04/30 05:30:45;;;;;;;2.78;1.63;;;;;;;8.29;65.87;103022.34;4972512;28;99327;-35
2022/04/30 05:33:11;;;;;;;2.70;1.75;;;;;;;8.24;65.97;103011.63;4972953;28;96651;-35
2022/04/30 05:35:36;;;;;;;3.00;1.75;;;;;;;8.25;66.00;103010.72;4972742;28;96553;-35
2022/04/30 05:38:01;;;;;;;4.80;2.40;;;;;;;8.28;66.18;103012.47;4972694;28;97838;-35
2022/04/30 05:40:27;;;;;;;3.95;1.75;;;;;;;8.29;66.08;103011.56;4973059;28;97802;-35
2022/04/30 05:42:52;;;;;;;3.97;1.98;;;;;;;8.27;65.79;103005.28;4971720;28;118822;-35
2022/04/30 05:45:17;;;;;;;10.18;2.03;;;;;;;8.32;65.49;103011.53;4971727;28;121677;-35
2022/04/30 05:47:42;;;;;;;4.07;2.00;;;;;;;8.28;65.97;103007.97;4971075;28;125490;-35
2022/04/30 05:50:09;;;;;;;2.42;1.67;;;;;;;8.32;65.96;103008.81;4971565;28;126781;-35
2022/04/30 05:52:34;;;;;;;2.67;1.67;;;;;;;8.37;65.20;103014.16;4972613;28;96775;-35
2022/04/30 05:55:02;;;;;;;5.57;1.67;;;;;;;8.37;65.93;103006.94;4972579;28;97157;-35
2022/04/30 05:57:28;;;;;;;3.17;1.77;;;;;;;8.33;65.42;103002.50;4970919;28;101183;-35
2022/04/30 05:59:53;;;;;;;4.65;2.00;;;;;;;8.40;66.55;103004.19;4970817;28;100917;-35
2022/04/30 06:02:18;;;;;;;5.22;2.00;;;;;;;8.33;66.05;102999.78;4972494;28;97859;-35
2022/04/30 06:04:44;;;;;;;3.13;1.88;;;;;;;8.44;65.88;103014.03;4972949;28;96742;-35
2022/04/30 06:07:09;;;;;;;3.20;1.75;;;;;;;8.42;65.63;103012.28;4972088;28;96772;-35
2022/04/30 06:09:34;;;;;;;2.38;1.38;;;;;;;8.41;66.20;103010.47;4970785;28;127343;-35
2022/04/30 06:11:59;;;;;;;3.03;1.52;;;;;;;8.49;66.25;103017.53;4970741;28;113287;-35
2022/04/30 06:14:25;;;;;;;2.90;1.75;;;;;;;8.46;65.84;103008.59;4971602;28;118435;-35
2022/04/30 06:16:50;;;;;;;3.20;1.92;;;;;;;8.49;66.20;103014.84;4970883;28;127985;-35
2022/04/30 06:19:15;;;;;;;2.15;1.38;;;;;;;8.56;65.94;103017.44;4972162;28;97903;-35
2022/04/30 06:21:41;;;;;;;3.95;1.73;;;;;;;8.54;65.91;103008.47;4971056;28;115903;-35
2022/04/30 06:24:06;;;;;;;4.43;1.73;;;;;;;8.59;65.40;103011.97;4972127;28;96782;-35
2022/04/30 06:26:32;;;;;;;3.40;1.67;;;;;;;8.61;65.67;103018.25;4970750;28;99667;-35
2022/04/30 06:28:58;;;;;;;5.57;2.38;;;;;;;8.67;65.38;103023.53;4972256;28;99278;-35
2022/04/30 06:31:23;;;;;;;3.35;2.08;;;;;;;8.69;65.86;103018.97;4972250;28;96446;-35
2022/04/30 06:33:52;;;;;;;9.55;2.28;;;;;;;8.64;65.29;103019.06;4971192;28;121646;-35
2022/04/30 06:36:17;;;;;;;3.20;1.77;;;;;;;8.74;65.71;103022.47;4970022;28;100969;-35
2022/04/30 06:38:43;;;;;;;3.05;1.90;;;;;;;8.79;65.72;103023.28;4971778;28;98029;-35
2022/04/30 06:41:08;;;;;;;7.97;1.92;;;;;;;8.83;65.54;103024.13;4971815;28;96624;-35
2022/04/30 06:43:33;;;;;;;4.10;2.08;;;;;;;8.81;65.26;103012.47;4972198;28;96803;-35
2022/04/30 06:45:59;;;;;;;5.72;2.45;;;;;;;8.87;65.61;103013.22;4969692;28;113529;-35
2022/04/30 06:48:24;;;;;;;2.20;1.70;;;;;;;8.93;65.81;103015.81;4970548;28;99081;-35
2022/04/30 06:50:49;;;;;;;7.18;2.22;;;;;;;8.92;64.98;103005.91;4970200;28;107628;-35
2022/04/30 06:58:50;;;;;;;2.92;1.92;;;;;;;8.99;65.03;103013.94;4971728;28;96977;-35
2022/04/30 07:04:04;;;;;;;5.18;2.00;;;;;;;9.03;66.23;103015.63;4970786;28;96574;-35
2022/04/30 07:06:29;;;;;;;2.22;1.25;;;;;;;9.02;65.22;103013.84;4971515;28;99005;-35
2022/04/30 07:08:55;;;;;;;3.33;2.00;;;;;;;9.06;64.93;103018.28;4971210;28;97765;-35
2022/04/30 07:11:20;;;;;;;2.80;1.48;;;;;;;9.13;65.01;103022.66;4971141;28;103576;-35
2022/04/30 07:13:46;;;;;;;4.55;2.25;;;;;;;9.12;65.26;103020.84;4971305;28;96837;-35
2022/04/30 07:16:12;;;;;;;1.75;1.38;;;;;;;9.08;65.37;103008.31;4970119;28;100865;-35
2022/04/30 07:18:37;;;;;;;2.42;1.77;;;;;;;9.17;65.60;103018.03;4971594;28;97797;-35
2022/04/30 07:21:02;;;;;;;5.03;1.73;;;;;;;9.16;64.98;103016.28;4971358;28;114487;-35
2022/04/30 07:23:27;;;;;;;3.22;1.90;;;;;;;9.19;65.40;103017.09;4974576;28;96856;-35
2022/04/30 07:25:53;;;;;;;3.83;1.70;;;;;;;9.22;65.18;103021.53;4973634;28;112020;-35
2022/04/30 07:28:18;;;;;;;3.60;1.40;;;;;;;9.22;64.99;103016.13;4973745;28;126437;-35
2022/04/30 07:30:43;;;;;;;3.30;1.75;;;;;;;9.26;65.55;103023.28;4974888;28;96569;-35
2022/04/30 07:33:09;;;;;;;4.05;1.80;;;;;;;9.28;64.95;103008.78;4973459;28;121141;-35
2022/04/30 07:35:34;;;;;;;2.03;1.42;;;;;;;9.34;65.28;103016.78;4974432;28;99423;-35
2022/04/30 07:37:59;;;;;;;4.22;1.55;;;;;;;9.46;64.78;103025.53;4974347;28;113026;-35
2022/04/30 07:40:24;;;;;;;3.22;1.85;;;;;;;9.48;64.80;103016.47;4973552;28;121650;-35
2022/04/30 07:42:50;;;;;;;2.17;1.75;;;;;;;9.57;64.63;103007.25;4974722;28;96856;-35
2022/04/30 07:45:16;;;;;;;8.48;2.08;;;;;;;9.67;64.41;103014.22;4974088;28;99015;-35
2022/04/30 07:47:41;;;;;;;3.60;1.83;;;;;;;9.76;64.19;103014.03;4974227;28;97829;-35
2022/04/30 07:50:07;;;;;;;7.22;1.70;;;;;;;9.80;63.82;102993.19;4973884;28;96654;-35
2022/04/30 07:52:32;;;;;;;3.60;2.08;;;;;;;9.97;63.86;102990.09;4974514;28;96765;-35
2022/04/30 07:55:00;;;;;;;3.90;1.98;;;;;;;10.14;63.94;102993.25;4972711;28;101018;-35
2022/04/30 07:57:25;;;;;;;4.03;1.75;;;;;;;10.23;62.96;102983.13;4974425;28;97347;-35
2022/04/30 07:59:51;;;;;;;3.25;1.80;;;;;;;10.44;62.67;102987.09;4974290;28;96487;-35
2022/04/30 08:02:16;;;;;;;4.25;1.85;;;;;;;10.92;61.68;102990.31;4973207;28;117153;-35
2022/04/30 08:04:42;;;;;;;4.35;1.92;;;;;;;11.29;60.52;102991.03;4972990;28;126488;-35
2022/04/30 08:07:08;;;;;;;5.00;2.05;;;;;;;11.47;60.26;102991.38;4972710;28;100933;-35
2022/04/30 08:09:33;;;;;;;4.35;1.80;;;;;;;11.73;60.16;102992.38;4971952;28;96820;-35
2022/04/30 08:11:58;;;;;;;5.75;1.85;;;;;;;11.90;59.63;102990.03;4979667;28;96832;-35
2022/04/30 08:14:24;;;;;;;2.78;1.70;;;;;;;12.10;58.86;102983.94;4993224;28;99263;-34
2022/04/30 08:16:49;;;;;;;4.38;1.83;;;;;;;12.35;57.76;102969.53;4992568;28;128987;-35
2022/04/30 08:19:15;;;;;;;3.10;1.90;;;;;;;12.19;57.80;102990.91;4992684;28;121878;-35
2022/04/30 08:21:40;;;;;;;3.17;1.88;;;;;;;11.95;57.06;102989.91;4993956;28;96722;-35
2022/04/30 08:24:06;;;;;;;2.60;1.55;;;;;;;11.83;57.61;102991.16;4993462;28;99091;-35
2022/04/30 08:26:31;;;;;;;2.60;1.55;;;;;;;12.17;57.56;102987.34;4993642;28;97812;-35
2022/04/30 08:28:58;;;;;;;2.53;1.73;;;;;;;12.53;57.43;102973.41;4993839;28;96609;-35
2022/04/30 08:31:23;;;;;;;2.80;1.73;;;;;;;13.11;56.10;102964.97;4991070;28;97280;-35
2022/04/30 08:33:48;;;;;;;2.55;1.70;;;;;;;13.22;55.70;102968.13;4992103;28;97088;-35
2022/04/30 08:36:14;;;;;;;4.68;1.58;;;;;;;13.40;53.40;102965.69;4992364;28;126481;-35
2022/04/30 08:38:40;;;;;;;2.45;1.55;;;;;;;13.41;52.43;102968.34;4991579;28;96929;-35
2022/04/30 08:41:08;;;;;;;2.58;1.65;;;;;;;13.43;53.01;102962.84;4992162;28;96888;-35
2022/04/30 08:43:34;;;;;;;3.65;1.77;;;;;;;13.08;53.31;102962.31;4991790;28;100923;-35
2022/04/30 08:46:00;;;;;;;4.90;1.45;;;;;;;12.79;53.76;102974.31;4992143;28;128202;-35
2022/04/30 08:48:29;;;;;;;2.97;1.40;;;;;;;12.50;54.52;102970.81;4993173;28;98553;-35
2022/04/30 08:50:54;;;;;;;3.20;1.90;;;;;;;12.25;55.29;102968.06;4991976;28;96949;-35
2022/04/30 08:53:19;;;;;;;3.08;1.63;;;;;;;12.14;55.95;102962.13;4992909;28;99258;-35
2022/04/30 08:55:45;;;;;;;1.73;1.30;;;;;;;12.03;56.60;102971.50;4992733;28;117793;-34
2022/04/30 08:58:11;;;;;;;2.65;1.40;;;;;;;11.87;56.32;102967.53;4993006;28;96486;-34
2022/04/30 09:00:42;;;;;;;2.25;1.48;;;;;;;11.78;56.07;102965.97;4991459;28;97200;-35
2022/04/30 09:03:07;;;;;;;5.25;1.42;;;;;;;11.78;57.48;102965.09;4972130;28;100869;-35
2022/04/30 09:05:35;;;;;;;8.32;1.90;;;;;;;12.14;56.22;102965.72;4992902;28;96830;-35
2022/04/30 09:08:01;;;;;;;1.55;1.15;;;;;;;12.72;54.62;102952.75;4991350;28;96617;-35
2022/04/30 09:10:31;;;;;;;4.93;1.40;;;;;;;13.32;53.58;102946.91;4975221;28;96860;-35
2022/04/30 09:13:14;;;;;;;4.00;1.98;;;;;;;13.94;52.91;102937.13;4992252;28;99418;-35
2022/04/30 09:15:46;;;;;;;5.53;1.83;;;;;;;14.44;51.52;102940.41;4992634;28;97830;-34
2022/04/30 09:18:13;;;;;;;3.15;1.67;;;;;;;14.55;50.76;102929.03;4992416;28;96693;-35
2022/04/30 09:20:45;;;;;;;8.30;1.65;;;;;;;14.45;51.63;102930.38;4990270;28;96800;-36
2022/04/30 09:23:11;;;;;;;;;;;;;;;14.21;51.08;102943.25;4991314;28;100896;-35
2022/04/30 09:25:36;;;;;;;1.58;1.02;;;;;;;13.89;52.40;102929.16;4991824;28;97707;-35
2022/04/30 09:28:03;;;;;;;7.60;1.85;;;;;;;13.48;52.25;102939.91;4991769;28;96998;-35
2022/04/30 09:30:29;;;;;;;2.75;1.55;;;;;;;13.28;53.02;102938.00;4992838;28;96905;-35
2022/04/30 09:33:02;;;;;;;4.72;1.48;;;;;;;13.08;54.12;102952.31;4991068;28;101140;-35
2022/04/30 09:38:12;;;;;;;2.45;1.30;;;;;;;12.75;54.47;102925.47;4992672;28;96770;-35
2022/04/30 09:40:38;;;;;;;2.25;1.55;;;;;;;12.84;54.36;102943.25;4991129;28;97174;-35
2022/04/30 09:43:05;;;;;;;2.17;1.30;;;;;;;12.80;54.54;102928.03;4991015;28;99253;-35
2022/04/30 09:45:35;;;;;;;4.72;1.90;;;;;;;12.79;55.00;102942.56;4990083;28;100739;-35
2022/04/30 09:48:02;;;;;;;4.72;1.40;;;;;;;12.83;54.75;102940.63;4991750;28;96868;-35
2022/04/30 09:56:08;;;;;;;4.53;1.52;;;;;;;12.67;55.37;102930.28;4992743;28;96913;-35
2022/04/30 09:58:38;;;;;;;6.50;1.80;;;;;;;12.62;55.61;102940.47;4991034;28;96603;-35
2022/04/30 10:01:05;;;;;;;2.65;1.38;;;;;;;12.66;55.63;102941.25;4974359;28;96755;-35
2022/04/30 10:03:31;;;;;;;2.47;1.40;;;;;;;12.65;55.16;102948.50;4990752;28;101053;-35
2022/04/30 10:06:04;;;;;;;1.88;1.35;;;;;;;12.66;54.81;102939.41;4992197;28;97804;-35
2022/04/30 10:08:35;;;;;;;2.67;1.25;;;;;;;12.63;54.36;102936.81;4991566;28;96873;-35
2022/04/30 10:11:11;;;;;;;2.50;1.60;;;;;;;12.57;53.73;102939.75;4991082;28;96866;-35
2022/04/30 10:13:58;;;;;;;2.05;1.05;;;;;;;12.39;54.28;102933.13;4990154;28;100845;-36
2022/04/30 10:16:28;;;;;;;1.23;0.95;;;;;;;12.48;54.82;102931.91;4990622;28;100886;-35
2022/04/30 10:19:20;;;;;;;1.70;1.13;;;;;;;12.51;55.15;102940.88;4991472;28;96494;-35
2022/04/30 10:21:45;;;;;;;1.95;1.20;;;;;;;12.38;55.39;102922.31;4992286;28;96652;-35
2022/04/30 10:24:14;;;;;;;1.80;1.10;;;;;;;12.34;55.74;102929.69;4990719;28;119882;-35
2022/04/30 10:26:58;;;;;;;2.75;1.13;;;;;;;12.31;55.54;102941.56;4991803;28;97820;-35
2022/04/30 10:29:23;;;;;;;2.65;1.20;;;;;;;12.23;55.50;102931.91;4990698;28;96669;-35
2022/04/30 10:31:49;;;;;;;10.13;1.00;;;;;;;12.21;55.72;102923.81;4991047;28;119617;-35
2022/04/30 10:34:15;;;;;;;1.25;0.85;;;;;;;12.27;55.92;102929.00;4990446;28;101042;-35
2022/04/30 10:36:40;;;;;;;4.10;1.10;;;;;;;12.24;56.50;102922.81;4992066;28;97356;-35
2022/04/30 10:39:09;;;;;;;3.75;1.40;;;;;;;12.31;56.79;102914.38;4991911;28;96681;-35
2022/04/30 10:41:45;;;;;;;2.67;1.48;;;;;;;12.54;57.87;102919.00;4990566;28;97588;-35
2022/04/30 10:44:13;;;;;;;2.05;1.23;;;;;;;12.61;57.01;102911.50;4989821;28;100673;-35
2022/04/30 10:46:44;;;;;;;1.73;1.42;;;;;;;12.63;57.43;102912.34;4990204;28;101052;-35
2022/04/30 10:49:10;;;;;;;3.20;1.38;;;;;;;12.70;57.08;102921.13;4991757;28;96762;-35
2022/04/30 10:51:41;;;;;;;2.67;1.45;;;;;;;12.68;57.27;102906.69;4991498;28;96563;-35
2022/04/30 10:54:18;;;;;;;2.70;1.70;;;;;;;12.65;57.86;102905.00;4990101;28;100837;-35
2022/04/30 10:56:45;;;;;;;2.35;1.20;;;;;;;12.60;57.06;102906.13;4991847;28;100606;-35
2022/04/30 10:59:20;;;;;;;3.72;1.50;;;;;;;12.52;57.88;102907.28;4993487;28;96660;-35
2022/04/30 11:01:49;;;;;;;3.53;1.30;;;;;;;12.33;57.88;102896.19;4994060;28;96821;-35
2022/04/30 11:04:19;;;;;;;3.65;1.30;;;;;;;12.45;57.84;102899.41;4993413;28;100876;-35
2022/04/30 11:06:47;;;;;;;5.30;1.55;;;;;;;12.38;57.69;102887.88;4994560;28;97365;-35
2022/04/30 11:09:13;;;;;;;2.47;1.48;;;;;;;12.32;57.84;102890.81;4992911;28;97056;-35
2022/04/30 11:11:38;;;;;;;3.05;1.30;;;;;;;12.36;58.10;102900.63;4992749;28;96823;-35
2022/04/30 11:14:09;;;;;;;2.78;1.50;;;;;;;12.44;58.05;102897.63;4993333;28;100995;-35
2022/04/30 11:16:41;;;;;;;2.42;1.27;;;;;;;12.49;57.70;102890.22;4993150;28;100615;-35
2022/04/30 11:19:13;;;;;;;;;;;;;;;12.61;57.44;102895.19;4995212;28;96546;-35
2022/04/30 11:21:41;;;;;;;4.32;0.93;;;;;;;12.55;57.41;102889.97;4993537;28;96723;-35
2022/04/30 11:24:07;;;;;;;2.85;1.30;;;;;;;12.53;57.51;102875.53;4993188;28;100892;-35
2022/04/30 11:26:37;;;;;;;4.90;1.55;;;;;;;12.48;57.14;102883.00;4993172;28;101006;-35
2022/04/30 11:29:15;;;;;;;1.75;0.98;;;;;;;12.28;57.36;102884.59;4993274;28;96618;-35
2022/04/30 11:31:43;;;;;;;2.80;1.20;;;;;;;12.21;57.52;102887.59;4993237;28;96783;-35
2022/04/30 11:34:11;;;;;;;2.55;1.48;;;;;;;12.12;57.47;102896.97;4993765;28;99277;-35
2022/04/30 11:36:42;;;;;;;1.88;1.23;;;;;;;11.90;57.75;102881.41;4993090;28;100921;-35
2022/04/30 11:39:12;;;;;;;1.80;1.08;;;;;;;11.87;57.86;102888.78;4992877;28;96875;-35
2022/04/30 11:41:38;;;;;;;3.28;1.23;;;;;;;11.75;58.03;102873.78;4994416;28;96837;-35
2022/04/30 11:44:04;;;;;;;2.28;1.40;;;;;;;11.74;57.89;102876.53;4994124;28;99501;-35
2022/04/30 11:46:29;;;;;;;1.33;0.98;;;;;;;11.69;57.91;102876.69;4994115;28;99858;-35
2022/04/30 11:48:55;;;;;;;3.00;1.35;;;;;;;11.65;57.78;102875.00;4994298;28;96586;-35
2022/04/30 11:51:21;;;;;;;1.95;1.20;;;;;;;11.67;57.79;102883.97;4994787;28;96781;-35
2022/04/30 11:53:47;;;;;;;4.60;1.27;;;;;;;11.63;57.71;102868.72;4992544;28;101370;-35
2022/04/30 11:56:12;;;;;;;1.20;0.98;;;;;;;11.70;57.92;102875.72;4994031;28;99170;-35
2022/04/30 11:58:42;;;;;;;2.53;0.88;;;;;;;11.59;56.79;102859.81;4993682;28;96741;-35
2022/04/30 12:01:25;;;;;;;1.42;0.85;;;;;;;11.68;56.97;102873.09;4992663;28;96902;-35
2022/04/30 12:03:59;;;;;;;1.83;1.02;;;;;;;11.72;56.97;102865.69;4992618;28;100874;-35